Time;durP1;ratioP1;P1;durP2;ratioP2;P2;SDS_P1;SDS_P2;PMS_P1;PMS_P2;Temp;Humidity;BMP_temperature;BMP_pressure;BME280_temperature;BME280_humidity;BME280_pressure;Samples;Min_cycle;Max_cycle;Signal;HPM_P1;HPM_P2
2021/01/11 00:02:20;;;;;;;42.60;25.60;;;3.60;99.90;;;;;;6268791;22;20011;-83
2021/01/11 00:04:46;;;;;;;36.35;23.52;;;3.60;99.90;;;;;;6269109;22;20008;-84
2021/01/11 00:07:12;;;;;;;39.55;25.27;;;3.60;99.90;;;;;;6271272;22;20350;-82
2021/01/11 00:09:38;;;;;;;38.72;24.25;;;3.60;99.90;;;;;;6268566;22;20069;-84
2021/01/11 00:12:05;;;;;;;40.05;25.13;;;3.60;99.90;;;;;;6269223;22;20385;-85
2021/01/11 00:14:31;;;;;;;42.35;25.42;;;3.60;99.90;;;;;;6268974;22;20008;-84
2021/01/11 00:16:57;;;;;;;38.83;24.83;;;3.60;99.90;;;;;;6268791;22;20038;-83
2021/01/11 00:19:22;;;;;;;40.63;24.55;;;3.60;99.90;;;;;;6268435;22;20008;-84
2021/01/11 00:21:48;;;;;;;43.50;24.10;;;3.60;99.90;;;;;;6268037;22;20014;-83
2021/01/11 00:24:14;;;;;;;40.08;24.90;;;3.60;99.90;;;;;;6268565;22;20014;-84
2021/01/11 00:26:40;;;;;;;42.60;24.90;;;3.60;99.90;;;;;;6269013;22;20102;-83
2021/01/11 00:29:06;;;;;;;37.72;23.65;;;3.50;99.90;;;;;;6269012;22;20397;-84
2021/01/11 00:31:32;;;;;;;41.03;24.85;;;3.60;99.90;;;;;;6269286;22;20098;-83
2021/01/11 00:33:58;;;;;;;39.53;23.58;;;3.60;99.90;;;;;;6270606;22;20020;-85
2021/01/11 00:36:23;;;;;;;41.35;24.70;;;3.60;99.90;;;;;;6268906;22;20023;-84
2021/01/11 00:38:49;;;;;;;42.75;25.60;;;3.60;99.90;;;;;;6270769;22;20000;-82
2021/01/11 00:41:19;;;;;;;39.85;24.08;;;3.60;99.90;;;;;;6268525;22;20008;-83
2021/01/11 00:43:45;;;;;;;39.33;23.95;;;3.60;99.90;;;;;;6268932;22;20008;-83
2021/01/11 00:46:19;;;;;;;43.17;25.17;;;3.60;99.90;;;;;;6268759;22;20022;-83
2021/01/11 00:48:45;;;;;;;43.58;25.08;;;3.60;99.90;;;;;;6270197;22;20004;-83
2021/01/11 00:51:10;;;;;;;40.30;24.67;;;3.60;99.90;;;;;;6268342;22;20018;-83
2021/01/11 00:53:36;;;;;;;40.35;23.73;;;3.60;99.90;;;;;;6270434;22;20053;-84
2021/01/11 00:56:01;;;;;;;45.42;26.70;;;3.60;99.90;;;;;;6268807;22;20422;-84
2021/01/11 00:58:28;;;;;;;45.80;26.85;;;3.60;99.90;;;;;;6268678;22;20625;-83
2021/01/11 01:00:54;;;;;;;44.65;26.48;;;3.60;99.90;;;;;;6268523;22;20007;-84
2021/01/11 01:03:19;;;;;;;51.10;28.60;;;3.60;99.90;;;;;;6274147;22;20004;-84
2021/01/11 01:05:45;;;;;;;47.65;26.55;;;3.60;99.90;;;;;;6277545;22;20026;-85
2021/01/11 01:08:10;;;;;;;43.60;25.63;;;3.60;99.90;;;;;;6277287;22;20086;-83
2021/01/11 01:10:36;;;;;;;43.60;25.88;;;3.50;99.90;;;;;;6275956;22;20008;-84
2021/01/11 01:13:01;;;;;;;45.30;26.30;;;3.50;99.90;;;;;;6276423;22;20025;-84
2021/01/11 01:15:27;;;;;;;47.38;25.95;;;3.50;99.90;;;;;;6278001;22;20023;-85
2021/01/11 01:17:54;;;;;;;50.80;27.45;;;3.50;99.90;;;;;;6292496;22;20008;-87
2021/01/11 01:20:19;;;;;;;50.83;28.20;;;3.60;99.90;;;;;;6303626;22;20015;-85
2021/01/11 01:22:46;;;;;;;47.47;26.67;;;3.50;99.90;;;;;;6304594;22;20022;-85
2021/01/11 01:25:13;;;;;;;48.17;26.42;;;3.50;99.90;;;;;;6301190;22;20000;-85
2021/01/11 01:27:39;;;;;;;52.22;29.27;;;3.50;99.90;;;;;;6285187;22;20030;-85
2021/01/11 01:30:05;;;;;;;53.05;28.17;;;3.50;99.90;;;;;;6283546;22;20331;-84
2021/01/11 01:32:31;;;;;;;51.38;29.00;;;3.50;99.90;;;;;;6285816;22;20087;-84
2021/01/11 01:34:56;;;;;;;50.65;28.65;;;3.50;99.90;;;;;;6276205;22;20512;-83
2021/01/11 01:37:22;;;;;;;58.30;32.15;;;3.50;99.90;;;;;;6279065;22;20004;-83
2021/01/11 01:39:48;;;;;;;53.05;29.02;;;3.50;99.90;;;;;;6282066;22;20038;-84
2021/01/11 01:42:13;;;;;;;52.85;28.60;;;3.50;99.90;;;;;;6281778;22;20011;-84
2021/01/11 01:44:39;;;;;;;54.58;29.85;;;3.50;99.90;;;;;;6283202;22;20011;-83
2021/01/11 01:47:05;;;;;;;58.13;31.05;;;3.50;99.90;;;;;;6276649;22;20430;-84
2021/01/11 01:49:30;;;;;;;51.30;29.23;;;3.50;99.90;;;;;;6276446;22;19999;-85
2021/01/11 01:51:56;;;;;;;61.80;33.40;;;3.50;99.90;;;;;;6274421;22;20008;-84
2021/01/11 01:54:22;;;;;;;62.05;32.40;;;3.50;99.90;;;;;;6274837;22;20552;-84
2021/01/11 01:56:48;;;;;;;62.70;32.60;;;3.50;99.90;;;;;;6274849;22;20035;-84
2021/01/11 01:59:14;;;;;;;53.47;30.65;;;3.50;99.90;;;;;;6274013;22;20036;-83
2021/01/11 02:01:40;;;;;;;59.63;33.25;;;3.50;99.90;;;;;;6274089;22;20011;-85
2021/01/11 02:04:06;;;;;;;64.90;34.17;;;3.50;99.90;;;;;;6274558;22;20015;-84
2021/01/11 02:06:35;;;;;;;64.45;34.60;;;3.50;99.90;;;;;;6274517;22;20015;-85
2021/01/11 02:09:22;;;;;;;68.20;36.55;;;3.40;99.90;;;;;;6276396;22;19995;-84
2021/01/11 02:11:54;;;;;;;74.63;37.90;;;3.40;99.90;;;;;;6276210;22;20006;-84
2021/01/11 02:14:39;;;;;;;72.72;38.80;;;3.40;99.90;;;;;;6273784;22;20331;-85
2021/01/11 02:17:21;;;;;;;71.97;37.50;;;3.40;99.90;;;;;;6274177;22;19996;-84
2021/01/11 02:20:17;;;;;;;68.97;35.28;;;3.30;99.90;;;;;;6275893;22;19996;-86
2021/01/11 02:23:03;;;;;;;76.55;40.58;;;3.30;99.90;;;;;;6274155;22;20007;-85
2021/01/11 02:25:42;;;;;;;80.82;43.80;;;3.30;99.90;;;;;;6274644;22;20003;-85
2021/01/11 02:28:27;;;;;;;76.93;39.15;;;3.30;99.90;;;;;;6278146;22;20053;-85
2021/01/11 02:30:57;;;;;;;74.10;38.67;;;3.30;99.90;;;;;;6277755;22;20057;-84
2021/01/11 02:33:23;;;;;;;76.78;39.20;;;3.30;99.90;;;;;;6276914;22;20061;-83
2021/01/11 02:35:49;;;;;;;87.65;44.28;;;3.30;99.90;;;;;;6276013;22;20031;-84
2021/01/11 02:38:17;;;;;;;75.43;38.30;;;3.20;99.90;;;;;;6274514;22;20012;-85
2021/01/11 02:40:43;;;;;;;82.03;41.88;;;3.20;99.90;;;;;;6277822;22;20423;-85
2021/01/11 02:43:09;;;;;;;76.53;39.92;;;3.20;99.90;;;;;;6277120;22;19996;-84
2021/01/11 02:45:35;;;;;;;81.40;42.05;;;3.20;99.90;;;;;;6277615;22;20007;-85
2021/01/11 02:48:15;;;;;;;84.60;44.88;;;3.20;99.90;;;;;;6276510;22;20003;-85
2021/01/11 02:51:07;;;;;;;73.05;39.45;;;3.20;99.90;;;;;;6275931;22;20099;-84
2021/01/11 02:53:43;;;;;;;78.68;39.70;;;3.20;99.90;;;;;;6277389;22;20031;-85
2021/01/11 02:56:13;;;;;;;75.82;39.33;;;3.20;99.90;;;;;;6275622;22;20035;-83
2021/01/11 02:58:54;;;;;;;72.90;36.15;;;3.20;99.90;;;;;;6277207;22;19999;-84
2021/01/11 03:01:21;;;;;;;78.53;40.08;;;3.20;99.90;;;;;;6274582;22;20035;-84
2021/01/11 03:03:50;;;;;;;79.07;40.53;;;3.20;99.90;;;;;;6274980;22;20020;-83
2021/01/11 03:06:16;;;;;;;83.07;41.55;;;3.10;99.90;;;;;;6275400;22;20430;-83
2021/01/11 03:08:42;;;;;;;84.15;42.83;;;3.10;99.90;;;;;;6277674;22;20045;-83
2021/01/11 03:11:07;;;;;;;83.60;41.65;;;3.10;99.90;;;;;;6277531;22;20004;-84
2021/01/11 03:13:33;;;;;;;74.15;40.22;;;3.10;99.90;;;;;;6275814;22;20008;-84
2021/01/11 03:15:59;;;;;;;76.13;38.72;;;3.10;99.90;;;;;;6276044;22;20388;-84
2021/01/11 03:18:24;;;;;;;75.60;38.28;;;3.10;99.90;;;;;;6275559;22;20369;-83
2021/01/11 03:20:50;;;;;;;76.95;38.05;;;3.10;99.90;;;;;;6277548;22;20004;-84
2021/01/11 03:23:16;;;;;;;81.15;40.80;;;3.10;99.90;;;;;;6277603;22;20004;-85
2021/01/11 03:25:41;;;;;;;78.20;38.72;;;3.10;99.90;;;;;;6276967;22;20011;-86
2021/01/11 03:28:07;;;;;;;78.95;40.75;;;3.10;99.90;;;;;;6277734;22;20004;-85
2021/01/11 03:30:33;;;;;;;78.60;38.83;;;3.10;99.90;;;;;;6275607;22;20003;-86
2021/01/11 03:32:58;;;;;;;79.57;37.85;;;3.10;99.90;;;;;;6275775;22;20014;-84
2021/01/11 03:35:24;;;;;;;79.18;39.17;;;3.00;99.90;;;;;;6275222;22;20035;-85
2021/01/11 03:37:49;;;;;;;81.53;38.80;;;3.00;99.90;;;;;;6277370;22;20052;-84
2021/01/11 03:40:15;;;;;;;75.30;38.42;;;3.00;99.90;;;;;;6277209;22;20315;-84
2021/01/11 03:42:41;;;;;;;82.88;39.78;;;3.00;99.90;;;;;;6275835;22;20015;-84
2021/01/11 03:45:09;;;;;;;86.38;41.22;;;3.00;99.90;;;;;;6275919;22;20075;-85
2021/01/11 03:47:35;;;;;;;92.28;43.08;;;3.00;99.90;;;;;;6275421;22;20003;-85
2021/01/11 03:50:02;;;;;;;85.40;39.42;;;3.00;99.90;;;;;;6275240;22;20034;-85
2021/01/11 03:52:27;;;;;;;89.80;40.60;;;3.00;99.90;;;;;;6276715;22;20381;-85
2021/01/11 03:54:53;;;;;;;95.57;41.42;;;2.90;99.90;;;;;;6275684;22;20008;-85
2021/01/11 03:57:19;;;;;;;96.80;42.38;;;2.90;99.90;;;;;;6275253;22;20011;-84
2021/01/11 03:59:44;;;;;;;89.30;40.00;;;2.90;99.90;;;;;;6276882;22;20075;-83
2021/01/11 04:02:10;;;;;;;89.55;40.08;;;2.90;99.90;;;;;;6275789;22;20004;-82
2021/01/11 04:04:36;;;;;;;84.25;37.95;;;2.90;99.90;;;;;;6275312;22;20008;-84
2021/01/11 04:07:01;;;;;;;86.88;39.00;;;2.80;99.90;;;;;;6274783;22;20019;-84
2021/01/11 04:09:27;;;;;;;90.32;39.95;;;2.80;99.90;;;;;;6276907;22;20030;-83
2021/01/11 04:11:53;;;;;;;89.70;37.83;;;2.80;99.90;;;;;;6275095;22;20192;-84
2021/01/11 04:14:20;;;;;;;97.82;40.00;;;2.70;99.90;;;;;;6275599;22;20004;-84
2021/01/11 04:16:46;;;;;;;100.47;40.63;;;2.70;99.90;;;;;;6277055;22;20015;-83
2021/01/11 04:19:12;;;;;;;102.20;41.90;;;2.70;99.90;;;;;;6275650;22;20008;-84
2021/01/11 04:21:40;;;;;;;93.15;39.03;;;2.70;99.90;;;;;;6276727;22;20312;-84
2021/01/11 04:24:06;;;;;;;85.70;35.95;;;2.70;99.90;;;;;;6276979;22;20006;-85
2021/01/11 04:26:32;;;;;;;91.38;36.30;;;2.70;99.90;;;;;;6274641;22;20039;-84
2021/01/11 04:28:58;;;;;;;92.35;37.17;;;2.60;99.90;;;;;;6275248;22;20028;-84
2021/01/11 04:31:23;;;;;;;90.22;36.03;;;2.60;99.90;;;;;;6274763;22;20069;-82
2021/01/11 04:33:49;;;;;;;88.90;36.67;;;2.70;99.90;;;;;;6275246;22;20008;-84
2021/01/11 04:36:14;;;;;;;85.47;34.28;;;2.60;99.90;;;;;;6274915;22;20068;-84
2021/01/11 04:38:40;;;;;;;96.00;36.35;;;2.60;99.90;;;;;;6276627;22;20011;-84
2021/01/11 04:41:06;;;;;;;99.47;39.78;;;2.60;99.90;;;;;;6276661;22;20045;-83
2021/01/11 04:43:39;;;;;;;116.18;42.58;;;2.60;99.90;;;;;;6274470;22;20011;-84
2021/01/11 04:46:04;;;;;;;;;;;2.60;99.90;;;;;;6274907;22;20490;-84
2021/01/11 04:48:31;;;;;;;103.65;39.70;;;2.50;99.90;;;;;;6276532;22;19942;-84
2021/01/11 04:50:57;;;;;;;94.85;37.70;;;2.50;99.90;;;;;;6275695;22;20422;-83
2021/01/11 04:53:25;;;;;;;96.72;35.80;;;2.50;99.90;;;;;;6276413;22;20000;-84
2021/01/11 04:55:53;;;;;;;96.55;38.08;;;2.50;99.90;;;;;;6276585;22;19999;-84
2021/01/11 04:58:21;;;;;;;97.18;39.28;;;2.50;99.90;;;;;;6274606;22;20083;-84
2021/01/11 05:00:48;;;;;;;104.35;40.72;;;2.50;99.90;;;;;;6274604;22;20370;-84
2021/01/11 05:03:14;;;;;;;84.93;34.97;;;2.50;99.90;;;;;;6274651;22;20090;-83
2021/01/11 05:05:46;;;;;;;91.60;36.55;;;2.50;99.90;;;;;;6276511;22;20098;-84
2021/01/11 05:08:12;;;;;;;94.13;37.50;;;2.50;99.90;;;;;;6274469;22;20508;-85
2021/01/11 05:10:40;;;;;;;101.32;40.25;;;2.50;99.90;;;;;;6275927;22;20006;-84
2021/01/11 05:13:08;;;;;;;83.90;35.00;;;2.50;99.90;;;;;;6274471;22;20011;-83
2021/01/11 05:15:39;;;;;;;106.80;39.03;;;2.50;99.90;;;;;;6274607;22;20007;-83
2021/01/11 05:18:16;;;;;;;102.20;38.72;;;2.50;99.90;;;;;;6274086;22;20039;-82
2021/01/11 05:20:42;;;;;;;93.55;37.97;;;2.50;99.90;;;;;;6274344;22;20031;-83
2021/01/11 05:23:09;;;;;;;95.20;37.65;;;2.50;99.90;;;;;;6274574;22;20015;-83
2021/01/11 05:25:39;;;;;;;98.28;37.70;;;2.60;99.90;;;;;;6276207;22;20000;-84
2021/01/11 05:28:05;;;;;;;99.45;37.22;;;2.60;99.90;;;;;;6276129;22;20422;-83
2021/01/11 05:30:36;;;;;;;91.25;36.60;;;2.60;99.90;;;;;;6276049;22;20083;-83
2021/01/11 05:33:04;;;;;;;92.40;35.83;;;2.60;99.90;;;;;;6274369;22;20102;-82
2021/01/11 05:35:30;;;;;;;104.05;39.65;;;2.60;99.90;;;;;;6274109;22;20090;-83
2021/01/11 05:37:56;;;;;;;101.25;36.78;;;2.60;99.90;;;;;;6274219;22;20054;-82
2021/01/11 05:40:29;;;;;;;97.10;39.92;;;2.60;99.90;;;;;;6273919;22;20087;-83
2021/01/11 05:43:00;;;;;;;109.65;42.10;;;2.70;99.90;;;;;;6274213;22;20326;-83
2021/01/11 05:45:35;;;;;;;109.70;40.92;;;2.70;99.90;;;;;;6275945;22;20506;-83
2021/01/11 05:48:08;;;;;;;108.10;41.22;;;2.70;99.90;;;;;;6274222;22;20380;-84
2021/01/11 05:50:37;;;;;;;105.50;42.10;;;2.70;99.90;;;;;;6270529;22;20461;-84
2021/01/11 05:53:04;;;;;;;108.65;40.67;;;2.60;99.90;;;;;;6274533;22;20011;-84
2021/01/11 05:55:33;;;;;;;125.38;45.70;;;2.70;99.90;;;;;;6270947;22;20054;-82
2021/01/11 05:58:05;;;;;;;109.13;43.53;;;2.70;99.90;;;;;;6270070;22;20600;-83
2021/01/11 06:00:35;;;;;;;114.13;43.25;;;2.70;99.90;;;;;;6270000;22;20023;-83
2021/01/11 06:03:03;;;;;;;124.88;47.22;;;2.80;99.90;;;;;;6274666;22;20334;-84
2021/01/11 06:05:30;;;;;;;123.53;47.47;;;2.80;99.90;;;;;;6272684;22;20102;-84
2021/01/11 06:07:57;;;;;;;115.25;47.15;;;2.80;99.90;;;;;;6272214;22;20037;-85
2021/01/11 06:10:23;;;;;;;113.90;43.95;;;2.80;99.90;;;;;;6274526;22;20409;-85
2021/01/11 06:12:50;;;;;;;124.15;50.13;;;2.80;99.90;;;;;;6275964;22;20007;-85
2021/01/11 06:15:24;;;;;;;118.50;49.95;;;2.80;99.90;;;;;;6276528;22;20057;-86
2021/01/11 06:17:52;;;;;;;118.57;48.47;;;2.90;99.90;;;;;;6278416;22;19999;-86
2021/01/11 06:20:25;;;;;;;116.55;48.97;;;2.90;99.90;;;;;;6276625;22;20061;-85
2021/01/11 06:22:50;;;;;;;130.23;51.28;;;2.90;99.90;;;;;;6276965;22;20312;-85
2021/01/11 06:25:25;;;;;;;127.15;53.28;;;2.90;99.90;;;;;;6277089;22;20006;-85
2021/01/11 06:27:55;;;;;;;118.60;50.95;;;2.90;99.90;;;;;;6277073;22;20016;-86
2021/01/11 06:30:43;;;;;;;130.02;56.45;;;3.00;99.90;;;;;;6276866;22;20324;-86
2021/01/11 06:33:13;;;;;;;119.43;55.53;;;3.00;99.90;;;;;;6276935;22;20003;-85
2021/01/11 06:35:44;;;;;;;124.35;55.03;;;3.00;99.90;;;;;;6277697;22;20077;-87
2021/01/11 06:38:22;;;;;;;119.30;54.92;;;3.00;99.90;;;;;;6279634;22;20330;-86
2021/01/11 06:41:10;;;;;;;110.60;52.70;;;3.00;99.90;;;;;;6281275;22;20010;-85
2021/01/11 06:43:48;;;;;;;112.97;56.00;;;3.00;99.90;;;;;;6287588;22;19990;-86
2021/01/11 06:46:29;;;;;;;113.82;54.08;;;3.00;99.90;;;;;;6305226;22;20008;-87
2021/01/11 06:49:00;;;;;;;123.43;58.80;;;3.00;99.90;;;;;;6305580;22;20006;-88
2021/01/11 06:52:12;;;;;;;116.05;53.70;;;3.00;99.90;;;;;;6303676;22;20011;-85
2021/01/11 06:54:41;;;;;;;115.68;55.83;;;3.00;99.90;;;;;;6288888;22;20008;-86
2021/01/11 06:57:18;;;;;;;113.53;57.78;;;3.00;99.90;;;;;;6298925;22;20400;-87
2021/01/11 06:59:46;;;;;;;113.63;55.30;;;3.00;99.90;;;;;;6282577;22;20011;-86
2021/01/11 07:02:28;;;;;;;116.43;59.58;;;3.00;99.90;;;;;;6285906;22;19999;-88
2021/01/11 07:04:54;;;;;;;106.82;54.42;;;3.00;99.90;;;;;;6276549;22;20457;-86
2021/01/11 07:07:29;;;;;;;115.32;58.28;;;3.00;99.90;;;;;;6276216;22;20095;-86
2021/01/11 07:09:59;;;;;;;105.80;53.50;;;3.00;99.90;;;;;;6276178;22;20449;-86
2021/01/11 07:12:26;;;;;;;101.07;54.33;;;3.00;99.90;;;;;;6275501;22;20008;-86
2021/01/11 07:14:59;;;;;;;110.57;58.42;;;3.00;99.90;;;;;;6276039;22;19996;-85
2021/01/11 07:17:38;;;;;;;101.18;55.50;;;3.00;99.90;;;;;;6276680;22;20008;-86
2021/01/11 07:20:14;;;;;;;104.70;54.95;;;3.00;99.90;;;;;;6276220;22;20051;-86
2021/01/11 07:22:42;;;;;;;104.30;57.47;;;3.00;99.90;;;;;;6276831;22;20481;-87
2021/01/11 07:25:08;;;;;;;98.13;54.47;;;3.00;99.90;;;;;;6276814;22;20007;-86
2021/01/11 07:27:34;;;;;;;99.35;54.78;;;3.00;99.90;;;;;;6276252;22;20026;-87
2021/01/11 07:30:00;;;;;;;97.15;53.40;;;3.00;99.90;;;;;;6275813;22;19996;-86
2021/01/11 07:32:30;;;;;;;87.53;49.00;;;3.00;99.90;;;;;;6276235;22;20377;-86
2021/01/11 07:35:00;;;;;;;93.07;54.78;;;3.00;99.90;;;;;;6275804;22;20023;-86
2021/01/11 07:37:26;;;;;;;95.07;51.55;;;3.00;99.90;;;;;;6275996;22;20000;-86
2021/01/11 07:39:51;;;;;;;89.25;51.08;;;3.10;99.90;;;;;;6275370;22;20011;-85
2021/01/11 07:42:19;;;;;;;88.55;49.03;;;3.10;99.90;;;;;;6275878;22;20342;-87
2021/01/11 07:44:45;;;;;;;87.65;49.30;;;3.00;99.90;;;;;;6276041;22;20007;-86
2021/01/11 07:47:15;;;;;;;85.50;47.17;;;3.10;99.90;;;;;;6275794;22;20593;-87
2021/01/11 07:49:51;;;;;;;86.90;49.72;;;3.10;99.90;;;;;;6278279;22;20006;-86
2021/01/11 07:52:19;;;;;;;80.03;46.25;;;3.10;99.90;;;;;;6282684;22;20007;-86
2021/01/11 07:54:46;;;;;;;82.70;48.03;;;3.10;99.90;;;;;;6283917;22;20004;-87
2021/01/11 07:57:15;;;;;;;84.97;47.60;;;3.10;99.90;;;;;;6276304;22;20014;-86
2021/01/11 07:59:42;;;;;;;86.32;49.20;;;3.10;99.90;;;;;;6276356;22;20035;-85
2021/01/11 08:02:12;;;;;;;81.13;46.58;;;3.10;99.90;;;;;;6278530;22;20338;-85
2021/01/11 08:04:39;;;;;;;80.40;46.47;;;3.10;99.90;;;;;;6283312;22;20058;-84
2021/01/11 08:07:12;;;;;;;76.70;44.85;;;3.20;99.90;;;;;;6278164;22;20011;-87
2021/01/11 08:09:39;;;;;;;;;;;3.20;99.90;;;;;;6280984;22;20006;-85
2021/01/11 08:12:17;;;;;;;77.60;44.65;;;3.20;99.90;;;;;;6279728;22;19899;-86
2021/01/11 08:14:44;;;;;;;76.32;43.78;;;3.20;99.90;;;;;;6280529;22;20000;-86
2021/01/11 08:17:21;;;;;;;74.13;43.85;;;3.20;99.90;;;;;;6283900;22;19996;-86
2021/01/11 08:19:57;;;;;;;76.32;44.67;;;3.20;99.90;;;;;;6282182;22;20012;-85
2021/01/11 08:22:25;;;;;;;71.25;42.88;;;3.20;99.90;;;;;;6283647;22;20000;-87
2021/01/11 08:24:52;;;;;;;74.13;42.85;;;3.20;99.90;;;;;;6283784;22;20011;-86
2021/01/11 08:27:23;;;;;;;74.78;44.67;;;3.20;99.90;;;;;;6290339;22;20011;-86
2021/01/11 08:29:49;;;;;;;71.97;41.53;;;3.20;99.90;;;;;;6292160;22;20386;-86
2021/01/11 08:32:18;;;;;;;68.00;40.95;;;3.20;99.90;;;;;;6289434;22;20000;-85
2021/01/11 08:34:43;;;;;;;74.13;43.40;;;3.20;99.90;;;;;;6280003;22;20078;-86
2021/01/11 08:37:25;;;;;;;70.93;43.50;;;3.30;99.90;;;;;;6279183;22;20004;-85
2021/01/11 08:40:06;;;;;;;74.45;43.55;;;3.30;99.90;;;;;;6278672;22;20319;-86
2021/01/11 08:42:33;;;;;;;65.85;38.53;;;3.30;99.90;;;;;;6276345;22;20011;-86
2021/01/11 08:45:29;;;;;;;74.20;41.30;;;3.30;99.90;;;;;;6252259;22;20007;-85
2021/01/11 08:48:10;;;;;;;70.07;42.50;;;3.30;99.90;;;;;;6277723;22;20019;-85
2021/01/11 08:50:56;;;;;;;71.35;40.92;;;3.30;99.90;;;;;;6275820;22;20591;-84
2021/01/11 08:53:29;;;;;;;67.32;40.22;;;3.30;99.90;;;;;;6275937;22;20089;-84
2021/01/11 08:56:07;;;;;;;68.40;41.07;;;3.30;99.90;;;;;;6274394;22;20019;-85
2021/01/11 08:58:34;;;;;;;65.82;39.50;;;3.30;99.90;;;;;;6274789;22;19999;-85
2021/01/11 09:01:19;;;;;;;73.35;40.53;;;3.30;99.90;;;;;;6273971;22;20004;-86
2021/01/11 09:03:54;;;;;;;69.55;40.95;;;3.30;99.90;;;;;;6276138;22;20015;-86
2021/01/11 09:06:39;;;;;;;67.78;39.20;;;3.30;99.90;;;;;;6276886;22;20015;-86
2021/01/11 09:09:11;;;;;;;67.85;40.17;;;3.30;99.90;;;;;;6275259;22;20338;-87
2021/01/11 09:11:38;;;;;;;59.42;36.92;;;3.40;99.90;;;;;;6279297;22;20008;-85
2021/01/11 09:14:12;;;;;;;65.70;38.95;;;3.40;99.90;;;;;;6278397;22;20004;-85
2021/01/11 09:16:39;;;;;;;66.07;38.60;;;3.40;99.90;;;;;;6275865;22;20012;-85
2021/01/11 09:19:16;;;;;;;65.72;36.58;;;3.40;99.90;;;;;;6277361;22;20011;-85
2021/01/11 09:21:43;;;;;;;59.67;36.05;;;3.50;99.90;;;;;;6278377;22;20004;-84
2021/01/11 09:24:11;;;;;;;57.83;35.40;;;3.40;99.90;;;;;;6276126;22;19995;-87
2021/01/11 09:26:38;;;;;;;58.40;35.63;;;3.40;99.90;;;;;;6274890;22;20018;-86
2021/01/11 09:29:08;;;;;;;57.38;34.90;;;3.40;99.90;;;;;;6281257;22;20090;-90
2021/01/11 09:31:34;;;;;;;64.43;36.25;;;3.50;99.90;;;;;;6277211;22;20007;-90
2021/01/11 09:34:02;;;;;;;57.13;34.22;;;3.50;99.90;;;;;;6282309;22;20027;-85
2021/01/11 09:36:36;;;;;;;56.17;34.15;;;3.50;99.90;;;;;;6269066;22;20011;-86
2021/01/11 09:39:04;;;;;;;57.40;35.00;;;3.50;99.90;;;;;;6274627;22;20014;-88
2021/01/11 09:41:30;;;;;;;56.67;36.88;;;3.50;99.90;;;;;;6273670;22;20521;-87
2021/01/11 09:43:55;;;;;;;56.83;35.83;;;3.50;99.90;;;;;;6272638;22;20014;-88
2021/01/11 09:46:21;;;;;;;56.65;34.50;;;3.60;99.90;;;;;;6273988;22;20028;-85
2021/01/11 09:48:47;;;;;;;55.72;34.33;;;3.60;99.90;;;;;;6273362;22;20051;-85
2021/01/11 09:51:12;;;;;;;52.08;34.83;;;3.60;99.90;;;;;;6273221;22;20039;-85
2021/01/11 09:53:38;;;;;;;50.78;33.72;;;3.60;99.90;;;;;;6275188;22;19999;-85
2021/01/11 09:56:04;;;;;;;50.88;32.70;;;3.60;99.90;;;;;;6273880;22;20011;-85
2021/01/11 09:58:29;;;;;;;48.97;32.17;;;3.60;99.90;;;;;;6273744;22;20004;-86
2021/01/11 10:00:55;;;;;;;51.03;32.00;;;3.70;99.90;;;;;;6275049;22;20049;-84
2021/01/11 10:03:24;;;;;;;49.35;32.17;;;3.60;99.90;;;;;;6275170;22;20007;-85
2021/01/11 10:05:56;;;;;;;47.75;28.30;;;3.70;99.90;;;;;;6275460;22;20099;-86
2021/01/11 10:08:22;;;;;;;51.92;32.30;;;3.70;99.90;;;;;;6273329;22;20503;-85
2021/01/11 10:10:48;;;;;;;52.17;34.13;;;3.70;99.90;;;;;;6273009;22;20052;-85
2021/01/11 10:13:14;;;;;;;45.33;30.23;;;3.70;99.90;;;;;;6276351;22;20016;-86
2021/01/11 10:15:39;;;;;;;48.28;31.60;;;3.70;99.90;;;;;;6275677;22;20015;-87
2021/01/11 10:18:05;;;;;;;47.25;31.38;;;3.80;99.90;;;;;;6274938;22;20489;-88
2021/01/11 10:20:30;;;;;;;44.20;30.25;;;3.80;99.90;;;;;;6274375;22;20357;-86
2021/01/11 10:22:56;;;;;;;43.38;29.60;;;3.80;99.90;;;;;;6274288;22;20010;-86
2021/01/11 10:25:22;;;;;;;44.03;29.45;;;3.80;99.90;;;;;;6275284;22;20011;-88
2021/01/11 10:27:48;;;;;;;47.08;31.48;;;3.90;99.90;;;;;;6276331;22;20427;-87
2021/01/11 10:30:14;;;;;;;46.20;31.30;;;3.90;99.90;;;;;;6273568;22;20008;-86
2021/01/11 10:32:40;;;;;;;42.33;29.45;;;3.90;99.90;;;;;;6273242;22;20080;-85
2021/01/11 10:35:06;;;;;;;41.78;29.00;;;3.90;99.90;;;;;;6272860;22;20038;-87
2021/01/11 10:37:32;;;;;;;43.50;28.42;;;3.90;99.90;;;;;;6275522;22;20007;-85
2021/01/11 10:39:58;;;;;;;43.25;31.30;;;3.90;99.90;;;;;;6274505;22;20011;-86
2021/01/11 10:42:27;;;;;;;40.47;28.20;;;3.90;99.90;;;;;;6275686;22;19999;-87
2021/01/11 10:44:53;;;;;;;43.38;28.95;;;3.90;99.90;;;;;;6274481;22;20042;-85
2021/01/11 10:47:19;;;;;;;40.40;28.58;;;3.90;99.90;;;;;;6275869;22;20011;-86
2021/01/11 10:49:44;;;;;;;44.22;29.90;;;3.90;99.90;;;;;;6276260;22;19995;-85
2021/01/11 10:52:10;;;;;;;42.38;28.45;;;4.00;99.90;;;;;;6276271;22;20011;-88
2021/01/11 10:54:35;;;;;;;44.97;29.17;;;3.90;99.90;;;;;;6276887;22;20030;-88
2021/01/11 10:57:01;;;;;;;42.60;28.38;;;4.00;99.90;;;;;;6276745;22;20014;-87
2021/01/11 10:59:29;;;;;;;42.00;28.30;;;4.00;99.90;;;;;;6275917;22;20597;-85
2021/01/11 11:01:55;;;;;;;44.63;29.67;;;4.00;99.90;;;;;;6274431;22;20015;-85
2021/01/11 11:04:23;;;;;;;39.15;28.30;;;4.00;99.90;;;;;;6274419;22;20008;-85
2021/01/11 11:06:49;;;;;;;45.10;31.35;;;4.00;99.90;;;;;;6272724;22;20070;-84
2021/01/11 11:09:14;;;;;;;40.13;28.42;;;4.00;99.90;;;;;;6273600;22;20434;-88
2021/01/11 11:11:41;;;;;;;42.50;28.90;;;4.00;99.90;;;;;;6278893;22;20008;-86
2021/01/11 11:14:07;;;;;;;41.42;28.52;;;4.00;99.90;;;;;;6279972;22;20022;-87
2021/01/11 11:16:33;;;;;;;43.67;29.00;;;4.10;99.90;;;;;;6282660;22;20016;-89
2021/01/11 11:18:58;;;;;;;41.53;29.50;;;4.10;99.90;;;;;;6303513;22;20000;-89
2021/01/11 11:21:24;;;;;;;41.50;28.42;;;4.20;99.90;;;;;;6303604;22;20043;-91
2021/01/11 11:23:49;;;;;;;44.75;28.98;;;4.20;99.90;;;;;;6303025;22;19996;-88
2021/01/11 11:26:20;;;;;;;43.10;29.63;;;4.20;99.90;;;;;;6294292;22;20019;-86
2021/01/11 11:28:46;;;;;;;40.45;27.88;;;4.20;99.90;;;;;;6290647;22;20011;-86
2021/01/11 11:31:11;;;;;;;42.10;28.60;;;4.30;99.90;;;;;;6288386;22;20000;-88
2021/01/11 11:33:39;;;;;;;43.17;28.75;;;4.30;99.90;;;;;;6278963;22;20026;-87
2021/01/11 11:36:04;;;;;;;41.17;28.50;;;4.30;99.90;;;;;;6277388;22;20074;-89
2021/01/11 11:38:30;;;;;;;36.92;26.60;;;4.30;99.90;;;;;;6277382;22;20414;-88
2021/01/11 11:40:56;;;;;;;38.35;27.77;;;4.30;99.90;;;;;;6277602;22;20081;-88
2021/01/11 11:43:21;;;;;;;38.92;26.98;;;4.30;99.90;;;;;;6277387;22;20062;-89
2021/01/11 11:45:48;;;;;;;37.83;27.33;;;4.30;99.90;;;;;;6276093;22;20011;-87
2021/01/11 11:48:15;;;;;;;36.45;25.48;;;4.30;99.90;;;;;;6276239;22;20050;-87
2021/01/11 11:50:42;;;;;;;37.83;26.73;;;4.30;99.90;;;;;;6276550;22;20053;-89
2021/01/11 11:53:07;;;;;;;40.00;27.65;;;4.30;99.90;;;;;;6276262;22;20010;-87
2021/01/11 11:55:33;;;;;;;44.42;27.45;;;4.30;99.90;;;;;;6276053;22;20431;-87
2021/01/11 11:57:59;;;;;;;38.58;26.98;;;4.30;99.90;;;;;;6276302;22;20014;-88
2021/01/11 12:00:25;;;;;;;35.47;26.20;;;4.30;99.90;;;;;;6276180;22;20090;-89
2021/01/11 12:02:50;;;;;;;39.47;26.55;;;4.30;99.90;;;;;;6276079;22;20405;-87
2021/01/11 12:05:18;;;;;;;37.53;26.08;;;4.30;99.90;;;;;;6277968;22;20024;-87
2021/01/11 12:07:50;;;;;;;36.72;26.40;;;4.40;99.90;;;;;;6276426;22;20011;-87
2021/01/11 12:10:17;;;;;;;39.95;28.08;;;4.40;99.90;;;;;;6276209;22;20011;-85
2021/01/11 12:12:45;;;;;;;39.50;26.13;;;4.40;99.90;;;;;;6275601;22;20004;-86
2021/01/11 12:15:15;;;;;;;35.50;24.20;;;4.50;99.90;;;;;;6276589;22;20007;-85
2021/01/11 12:17:43;;;;;;;36.15;26.20;;;4.50;99.90;;;;;;6274419;22;20304;-86
2021/01/11 12:20:09;;;;;;;36.17;25.23;;;4.50;99.90;;;;;;6275069;22;20015;-86
2021/01/11 12:22:35;;;;;;;34.75;24.60;;;4.50;99.90;;;;;;6275798;22;20007;-83
2021/01/11 12:25:01;;;;;;;36.10;24.77;;;4.50;99.90;;;;;;6275983;22;20028;-88
2021/01/11 12:27:27;;;;;;;32.40;23.83;;;4.50;99.90;;;;;;6274874;22;20450;-85
2021/01/11 12:29:52;;;;;;;32.85;23.83;;;4.60;99.90;;;;;;6274763;22;20004;-84
2021/01/11 12:32:18;;;;;;;33.85;23.92;;;4.60;99.90;;;;;;6278805;22;20004;-85
2021/01/11 12:34:44;;;;;;;34.90;24.52;;;4.60;99.90;;;;;;6279588;22;20024;-87
2021/01/11 12:37:14;;;;;;;32.15;22.52;;;4.60;99.90;;;;;;6276885;22;20007;-86
2021/01/11 12:39:40;;;;;;;35.50;24.15;;;4.60;99.90;;;;;;6280415;22;20058;-83
2021/01/11 12:42:07;;;;;;;31.45;22.48;;;4.60;99.90;;;;;;6285725;22;20000;-87
2021/01/11 12:44:32;;;;;;;31.95;23.75;;;4.60;99.90;;;;;;6282116;22;20027;-86